createdAt,value
2017-11-01T00:00:44.520Z,83.2
2017-11-01T00:01:46.502Z,83.5
2017-11-01T00:02:48.549Z,83.4
2017-11-01T00:03:50.457Z,83.4
2017-11-01T00:04:52.302Z,83.2
2017-11-01T00:05:54.184Z,83.5
2017-11-01T00:06:56.004Z,83.5
2017-11-01T00:07:57.858Z,84.0
2017-11-01T00:08:59.759Z,83.8
2017-11-01T00:10:01.575Z,83.4
2017-11-01T00:11:03.442Z,83.4
2017-11-01T00:12:05.322Z,83.4
2017-11-01T00:13:07.232Z,83.4
2017-11-01T00:14:09.064Z,83.6
2017-11-01T00:15:10.928Z,83.8
2017-11-01T00:16:12.795Z,83.7
2017-11-01T00:17:14.626Z,83.8
2017-11-01T00:18:16.488Z,83.7
2017-11-01T00:19:18.302Z,83.8
2017-11-01T00:20:20.216Z,84.1
2017-11-01T00:21:22.941Z,83.9
2017-11-01T00:22:24.837Z,84.3
2017-11-01T00:23:26.688Z,84.1
2017-11-01T00:24:28.553Z,84.4
2017-11-01T00:25:30.428Z,84.4
2017-11-01T00:26:32.255Z,84.2
2017-11-01T00:27:34.118Z,84.4
2017-11-01T00:28:35.965Z,84.6
2017-11-01T00:29:37.910Z,84.5
2017-11-01T00:30:39.728Z,84.6
2017-11-01T00:31:41.593Z,84.6
2017-11-01T00:32:43.430Z,84.2
2017-11-01T00:33:45.370Z,84.2
2017-11-01T00:34:47.183Z,84.3
2017-11-01T00:35:49.013Z,83.8
2017-11-01T00:36:50.834Z,83.6
2017-11-01T00:37:52.700Z,83.8
2017-11-01T00:38:54.504Z,84.1
2017-11-01T00:39:56.402Z,83.8
2017-11-01T00:40:58.258Z,83.8
2017-11-01T00:42:00.157Z,83.7
2017-11-01T00:43:02.026Z,83.8
2017-11-01T00:44:03.915Z,83.7
2017-11-01T00:45:05.762Z,84.0
2017-11-01T00:46:07.563Z,83.8
2017-11-01T00:47:09.399Z,83.7
2017-11-01T00:48:11.408Z,83.7
2017-11-01T00:49:13.242Z,83.7
2017-11-01T00:50:15.128Z,83.6
2017-11-01T00:51:17.054Z,83.7
2017-11-01T00:52:18.886Z,84.2
2017-11-01T00:53:20.748Z,83.6
2017-11-01T00:54:22.661Z,83.9
2017-11-01T00:55:24.624Z,83.9
2017-11-01T00:56:26.564Z,83.9
2017-11-01T00:57:28.487Z,83.7
2017-11-01T00:58:30.311Z,84.3
2017-11-01T00:59:32.202Z,84.1
2017-11-01T01:00:34.039Z,84.4
2017-11-01T01:01:35.914Z,84.0
2017-11-01T01:02:37.937Z,83.5
2017-11-01T01:03:39.877Z,83.5
2017-11-01T01:04:42.122Z,83.7
2017-11-01T01:05:43.988Z,82.6
2017-11-01T01:06:45.883Z,83.1
2017-11-01T01:07:47.669Z,83.7
2017-11-01T01:08:49.573Z,84.3
2017-11-01T01:09:51.432Z,84.4
2017-11-01T01:10:53.310Z,84.7
2017-11-01T01:11:55.191Z,85.1
2017-11-01T01:12:59.052Z,85.1
2017-11-01T01:14:00.977Z,85.1
2017-11-01T01:15:02.833Z,84.7
2017-11-01T01:16:04.676Z,84.3
2017-11-01T01:17:06.680Z,83.7
2017-11-01T01:18:08.577Z,83.5
2017-11-01T01:19:10.438Z,83.1
2017-11-01T01:20:12.302Z,83.4
2017-11-01T01:21:14.175Z,82.9
2017-11-01T01:22:16.017Z,82.9
2017-11-01T01:23:17.901Z,83.0
2017-11-01T01:24:19.841Z,82.7
2017-11-01T01:25:21.684Z,83.1
2017-11-01T01:26:23.614Z,83.1
2017-11-01T01:27:25.742Z,82.8
2017-11-01T01:28:27.542Z,82.7
2017-11-01T01:29:29.460Z,83.0
2017-11-01T01:30:31.335Z,82.9
2017-11-01T01:31:33.263Z,82.2
2017-11-01T01:32:35.198Z,82.5
2017-11-01T01:33:37.063Z,82.0
2017-11-01T01:34:38.870Z,82.5
2017-11-01T01:35:40.735Z,82.5
2017-11-01T01:36:42.577Z,81.7
2017-11-01T01:37:44.466Z,81.8
2017-11-01T01:38:46.372Z,81.7
2017-11-01T01:39:48.301Z,81.8
2017-11-01T01:40:50.160Z,81.7
2017-11-01T01:41:52.057Z,82.1
2017-11-01T01:42:53.901Z,81.4
2017-11-01T01:43:55.756Z,81.7
2017-11-01T01:44:57.630Z,80.8
2017-11-01T01:45:59.542Z,80.8
2017-11-01T01:47:01.418Z,81.2
2017-11-01T01:48:03.228Z,81.3
2017-11-01T01:49:05.061Z,80.5
2017-11-01T01:50:06.916Z,80.9
2017-11-01T01:51:08.745Z,80.6
2017-11-01T01:52:10.616Z,80.5
2017-11-01T01:53:12.466Z,80.1
2017-11-01T01:54:14.352Z,79.6
2017-11-01T01:55:16.165Z,79.6
2017-11-01T01:56:18.031Z,79.7
2017-11-01T01:57:19.884Z,79.2
2017-11-01T01:58:21.762Z,79.5
2017-11-01T01:59:23.584Z,78.7
2017-11-01T02:00:25.513Z,78.8
2017-11-01T02:01:27.361Z,78.9
2017-11-01T02:02:29.249Z,79.3
2017-11-01T02:03:31.056Z,78.9
2017-11-01T02:04:32.956Z,78.8
2017-11-01T02:05:34.833Z,78.5
2017-11-01T02:06:36.651Z,78.6
2017-11-01T02:07:38.458Z,78.6
2017-11-01T02:08:40.360Z,79.5
2017-11-01T02:09:42.173Z,79.5
2017-11-01T02:10:44.005Z,79.7
2017-11-01T02:11:45.836Z,79.3
2017-11-01T02:12:47.652Z,79.8
2017-11-01T02:13:49.483Z,79.4
2017-11-01T02:14:51.317Z,79.3
2017-11-01T02:15:53.179Z,78.6
2017-11-01T02:16:55.039Z,78.8
2017-11-01T02:17:56.859Z,78.6
2017-11-01T02:18:58.679Z,78.8
2017-11-01T02:20:00.515Z,78.8
2017-11-01T02:21:02.337Z,78.7
2017-11-01T02:22:04.168Z,78.8
2017-11-01T02:23:06.018Z,79.1
2017-11-01T02:24:07.836Z,78.6
2017-11-01T02:25:09.650Z,79.0
2017-11-01T02:26:11.491Z,78.6
2017-11-01T02:27:13.321Z,78.7
2017-11-01T02:28:15.153Z,78.8
2017-11-01T02:29:16.948Z,78.4
2017-11-01T02:30:18.776Z,78.6
2017-11-01T02:31:20.620Z,78.9
2017-11-01T02:32:22.437Z,78.6
2017-11-01T02:33:24.265Z,78.6
2017-11-01T02:34:26.112Z,79.1
2017-11-01T02:35:27.930Z,78.5
2017-11-01T02:36:29.783Z,79.1
2017-11-01T02:37:31.682Z,78.9
2017-11-01T02:38:33.478Z,79.1
2017-11-01T02:39:35.319Z,78.7
2017-11-01T02:40:37.151Z,79.2
2017-11-01T02:41:38.975Z,78.5
2017-11-01T02:42:40.859Z,78.6
2017-11-01T02:43:42.681Z,79.1
2017-11-01T02:44:44.503Z,78.4
2017-11-01T02:45:46.315Z,78.5
2017-11-01T02:46:48.130Z,79.0
2017-11-01T02:47:49.927Z,78.6
2017-11-01T02:48:51.786Z,78.4
2017-11-01T02:49:53.636Z,78.6
2017-11-01T02:50:55.480Z,78.7
2017-11-01T02:51:57.319Z,78.8
2017-11-01T02:52:59.175Z,78.8
2017-11-01T02:54:01.007Z,78.8
2017-11-01T02:55:02.837Z,78.6
2017-11-01T02:56:04.644Z,78.4
2017-11-01T02:57:06.536Z,78.7
2017-11-01T02:58:08.359Z,78.7
2017-11-01T02:59:10.180Z,78.7
2017-11-01T03:00:12.018Z,79.4
2017-11-01T03:01:13.836Z,78.7
2017-11-01T03:02:15.663Z,79.8
2017-11-01T03:03:17.469Z,79.3
2017-11-01T03:04:19.303Z,79.7
2017-11-01T03:05:21.140Z,80.1
2017-11-01T03:06:22.999Z,80.1
2017-11-01T03:07:24.838Z,80.0
2017-11-01T03:08:26.648Z,80.2
2017-11-01T03:09:28.501Z,80.4
2017-11-01T03:10:30.332Z,80.1
2017-11-01T03:11:32.167Z,80.1
2017-11-01T03:12:34.016Z,80.9
2017-11-01T03:13:35.844Z,80.5
2017-11-01T03:14:37.667Z,80.9
2017-11-01T03:15:39.472Z,80.9
2017-11-01T03:16:41.292Z,79.9
2017-11-01T03:17:43.147Z,81.0
2017-11-01T03:18:44.964Z,80.8
2017-11-01T03:19:46.815Z,81.6
2017-11-01T03:20:48.679Z,80.7
2017-11-01T03:21:50.541Z,81.2
2017-11-01T03:22:52.353Z,81.6
2017-11-01T03:23:54.194Z,81.4
2017-11-01T03:24:56.014Z,81.4
2017-11-01T03:25:57.851Z,81.4
2017-11-01T03:26:59.682Z,81.6
2017-11-01T03:28:01.516Z,81.6
2017-11-01T03:29:03.380Z,81.5
2017-11-01T03:30:05.228Z,82.4
2017-11-01T03:31:07.044Z,82.2
2017-11-01T03:32:08.890Z,82.3
2017-11-01T03:33:10.713Z,82.2
2017-11-01T03:34:12.525Z,82.3
2017-11-01T03:35:14.354Z,82.4
2017-11-01T03:36:16.154Z,81.9
2017-11-01T03:37:17.970Z,82.2
2017-11-01T03:38:19.829Z,82.0
2017-11-01T03:39:21.680Z,82.4
2017-11-01T03:40:23.510Z,82.8
2017-11-01T03:41:25.395Z,82.1
2017-11-01T03:42:27.236Z,82.7
2017-11-01T03:43:29.099Z,82.8
2017-11-01T03:44:30.927Z,82.7
2017-11-01T03:45:32.748Z,82.7
2017-11-01T03:46:34.660Z,83.5
2017-11-01T03:47:36.485Z,83.7
2017-11-01T03:48:38.305Z,83.8
2017-11-01T03:49:40.153Z,83.4
2017-11-01T03:50:41.982Z,84.0
2017-11-01T03:51:43.841Z,83.9
2017-11-01T03:52:45.666Z,84.1
2017-11-01T03:53:47.572Z,84.1
2017-11-01T03:54:49.409Z,84.9
2017-11-01T03:55:51.329Z,84.6
2017-11-01T03:56:53.158Z,84.9
2017-11-01T03:57:54.966Z,84.8
2017-11-01T03:58:56.819Z,85.2
2017-11-01T03:59:58.636Z,85.3
2017-11-01T04:01:00.446Z,85.6
2017-11-01T04:02:02.262Z,85.8
2017-11-01T04:03:04.085Z,85.7
2017-11-01T04:04:05.909Z,85.9
2017-11-01T04:05:07.732Z,85.7
2017-11-01T04:06:09.553Z,86.5
2017-11-01T04:07:11.408Z,86.4
2017-11-01T04:08:13.239Z,86.6
2017-11-01T04:09:15.087Z,86.6
2017-11-01T04:10:16.958Z,86.3
2017-11-01T04:11:18.789Z,86.4
2017-11-01T04:12:20.654Z,86.5
2017-11-01T04:13:22.510Z,85.7
2017-11-01T04:14:24.339Z,85.7
2017-11-01T04:15:26.209Z,86.1
2017-11-01T04:16:28.029Z,86.6
2017-11-01T04:17:29.865Z,86.3
2017-11-01T04:18:31.667Z,86.2
2017-11-01T04:19:33.494Z,86.4
2017-11-01T04:20:35.357Z,86.2
2017-11-01T04:21:37.211Z,86.2
2017-11-01T04:22:39.050Z,86.0
2017-11-01T04:23:40.974Z,86.1
2017-11-01T04:24:42.774Z,86.2
2017-11-01T04:25:44.617Z,86.5
2017-11-01T04:26:46.439Z,86.2
2017-11-01T04:27:48.320Z,85.9
2017-11-01T04:28:50.125Z,86.2
2017-11-01T04:29:51.942Z,86.1
2017-11-01T04:30:53.742Z,85.9
2017-11-01T04:31:55.614Z,85.9
2017-11-01T04:32:57.484Z,85.7
2017-11-01T04:33:59.297Z,85.6
2017-11-01T04:35:01.124Z,85.5
2017-11-01T04:36:02.959Z,85.7
2017-11-01T04:37:04.779Z,85.5
2017-11-01T04:38:06.596Z,85.6
2017-11-01T04:39:08.431Z,86.1
2017-11-01T04:40:10.240Z,86.4
2017-11-01T04:41:12.044Z,86.4
2017-11-01T04:42:13.887Z,86.4
2017-11-01T04:43:15.704Z,86.4
2017-11-01T04:44:17.513Z,85.9
2017-11-01T04:45:19.331Z,86.3
2017-11-01T04:46:21.147Z,86.3
2017-11-01T04:47:22.963Z,85.9
2017-11-01T04:48:24.803Z,85.6
2017-11-01T04:49:26.639Z,85.5
2017-11-01T04:50:28.457Z,85.8
2017-11-01T04:51:30.281Z,85.4
2017-11-01T04:52:32.091Z,85.6
2017-11-01T04:53:33.941Z,85.4
2017-11-01T04:54:35.800Z,85.9
2017-11-01T04:55:37.683Z,86.1
2017-11-01T04:56:39.484Z,86.3
2017-11-01T04:57:41.321Z,86.9
2017-11-01T04:58:43.127Z,86.9
2017-11-01T04:59:44.954Z,86.9
2017-11-01T05:00:46.775Z,86.9
2017-11-01T05:01:48.606Z,86.8
2017-11-01T05:02:50.420Z,86.9
2017-11-01T05:03:52.238Z,86.9
2017-11-01T05:04:54.028Z,86.8
2017-11-01T05:05:55.870Z,86.9
2017-11-01T05:06:57.717Z,86.5
2017-11-01T05:07:59.528Z,86.1
2017-11-01T05:09:01.331Z,86.6
2017-11-01T05:10:03.160Z,86.1
2017-11-01T05:11:05.015Z,86.1
2017-11-01T05:12:06.827Z,86.3
2017-11-01T05:13:08.822Z,86.6
2017-11-01T05:14:10.624Z,86.4
2017-11-01T05:15:12.447Z,86.0
2017-11-01T05:16:14.328Z,85.8
2017-11-01T05:17:16.127Z,85.8
2017-11-01T05:18:17.948Z,86.2
2017-11-01T05:19:19.761Z,86.1
2017-11-01T05:20:21.604Z,85.2
2017-11-01T05:21:23.421Z,85.8
2017-11-01T05:22:25.241Z,85.7
2017-11-01T05:23:27.107Z,85.2
2017-11-01T05:24:28.918Z,85.4
2017-11-01T05:25:30.735Z,85.4
2017-11-01T05:26:32.565Z,85.1
2017-11-01T05:27:34.392Z,85.0
2017-11-01T05:28:36.205Z,84.5
2017-11-01T05:29:38.047Z,84.1
2017-11-01T05:30:39.934Z,84.6
2017-11-01T05:31:41.782Z,84.2
2017-11-01T05:32:43.622Z,84.5
2017-11-01T05:33:45.444Z,83.7
2017-11-01T05:34:47.266Z,83.6
2017-11-01T05:35:49.110Z,83.5
2017-11-01T05:36:50.940Z,83.7
2017-11-01T05:37:52.764Z,83.6
2017-11-01T05:38:54.648Z,83.4
2017-11-01T05:39:56.459Z,83.6
2017-11-01T05:40:58.280Z,83.6
2017-11-01T05:42:00.154Z,83.7
2017-11-01T05:43:01.983Z,83.6
2017-11-01T05:44:03.804Z,83.6
2017-11-01T05:45:05.637Z,83.6
2017-11-01T05:46:07.455Z,84.1
2017-11-01T05:47:09.322Z,84.2
2017-11-01T05:48:11.167Z,84.1
2017-11-01T05:49:12.986Z,84.0
2017-11-01T05:50:14.848Z,84.1
2017-11-01T05:51:16.727Z,83.9
2017-11-01T05:52:18.545Z,84.5
2017-11-01T05:53:20.367Z,83.9
2017-11-01T05:54:22.297Z,84.2
2017-11-01T05:55:24.102Z,84.1
2017-11-01T05:56:26.013Z,84.3
2017-11-01T05:57:27.904Z,84.7
2017-11-01T05:58:29.750Z,84.9
2017-11-01T05:59:31.603Z,85.0
2017-11-01T06:00:33.450Z,84.8
2017-11-01T06:01:35.311Z,85.6
2017-11-01T06:02:37.141Z,85.1
2017-11-01T06:03:38.985Z,85.6
2017-11-01T06:04:40.781Z,85.9
2017-11-01T06:05:42.633Z,85.1
2017-11-01T06:06:44.466Z,85.3
2017-11-01T06:07:46.291Z,85.2
2017-11-01T06:08:48.157Z,84.8
2017-11-01T06:09:50.262Z,85.8
2017-11-01T06:10:52.090Z,85.6
2017-11-01T06:11:53.920Z,85.1
2017-11-01T06:12:55.763Z,85.7
2017-11-01T06:13:57.589Z,85.8
2017-11-01T06:14:59.437Z,85.7
2017-11-01T06:16:01.278Z,85.6
2017-11-01T06:17:03.094Z,85.6
2017-11-01T06:18:04.899Z,85.6
2017-11-01T06:19:06.754Z,85.8
2017-11-01T06:20:08.621Z,85.9
2017-11-01T06:21:10.448Z,85.7
2017-11-01T06:22:12.280Z,85.7
2017-11-01T06:23:14.095Z,85.7
2017-11-01T06:24:15.898Z,86.2
2017-11-01T06:25:17.708Z,86.3
2017-11-01T06:26:19.520Z,86.2
2017-11-01T06:27:21.395Z,86.7
2017-11-01T06:28:23.206Z,86.7
2017-11-01T06:29:25.049Z,86.8
2017-11-01T06:30:26.866Z,86.8
2017-11-01T06:31:28.769Z,86.7
2017-11-01T06:32:30.585Z,86.7
2017-11-01T06:33:32.473Z,87.0
2017-11-01T06:34:34.304Z,86.8
2017-11-01T06:35:36.131Z,87.5
2017-11-01T06:36:38.064Z,87.8
2017-11-01T06:37:39.874Z,87.5
2017-11-01T06:38:41.711Z,87.5
2017-11-01T06:39:43.544Z,87.2
2017-11-01T06:40:45.390Z,87.6
2017-11-01T06:41:47.201Z,87.0
2017-11-01T06:42:49.015Z,87.4
2017-11-01T06:43:50.854Z,87.2
2017-11-01T06:44:52.667Z,87.9
2017-11-01T06:45:54.476Z,88.0
2017-11-01T06:46:56.304Z,88.0
2017-11-01T06:47:58.143Z,88.1
2017-11-01T06:48:59.974Z,87.8
2017-11-01T06:50:01.856Z,88.1
2017-11-01T06:51:03.690Z,87.9
2017-11-01T06:52:05.599Z,87.5
2017-11-01T06:53:07.405Z,88.0
2017-11-01T06:54:09.358Z,88.3
2017-11-01T06:55:11.189Z,87.7
2017-11-01T06:56:13.021Z,87.7
2017-11-01T06:57:14.850Z,87.8
2017-11-01T06:58:16.670Z,87.6
2017-11-01T06:59:18.486Z,87.9
2017-11-01T07:00:20.306Z,87.6
2017-11-01T07:01:22.143Z,87.6
2017-11-01T07:02:23.967Z,87.5
2017-11-01T07:03:25.799Z,87.5
2017-11-01T07:04:27.659Z,87.3
2017-11-01T07:05:29.566Z,88.1
2017-11-01T07:06:31.384Z,87.4
2017-11-01T07:07:33.229Z,88.2
2017-11-01T07:08:35.051Z,87.3
2017-11-01T07:09:36.875Z,87.3
2017-11-01T07:10:38.692Z,87.6
2017-11-01T07:11:40.530Z,87.9
2017-11-01T07:12:42.582Z,87.7
2017-11-01T07:13:44.407Z,87.5
2017-11-01T07:14:46.271Z,87.5
2017-11-01T07:15:48.087Z,87.2
2017-11-01T07:16:49.965Z,87.5
2017-11-01T07:17:51.805Z,87.5
2017-11-01T07:18:53.679Z,87.5
2017-11-01T07:19:55.590Z,87.5
2017-11-01T07:20:57.428Z,86.8
2017-11-01T07:21:59.245Z,87.0
2017-11-01T07:23:01.066Z,86.7
2017-11-01T07:24:02.904Z,86.5
2017-11-01T07:25:04.726Z,86.7
2017-11-01T07:26:06.544Z,86.6
2017-11-01T07:27:08.373Z,86.3
2017-11-01T07:28:10.231Z,86.2
2017-11-01T07:29:12.093Z,86.2
2017-11-01T07:30:13.946Z,85.8
2017-11-01T07:31:15.772Z,85.5
2017-11-01T07:32:17.609Z,85.8
2017-11-01T07:33:19.453Z,85.5
2017-11-01T07:34:21.266Z,84.8
2017-11-01T07:35:23.143Z,84.7
2017-11-01T07:36:24.956Z,84.7
2017-11-01T07:37:26.777Z,84.6
2017-11-01T07:38:28.617Z,84.8
2017-11-01T07:39:30.442Z,85.0
2017-11-01T07:40:32.269Z,85.2
2017-11-01T07:41:34.110Z,85.2
2017-11-01T07:42:35.966Z,84.6
2017-11-01T07:43:37.805Z,84.5
2017-11-01T07:44:39.641Z,84.5
2017-11-01T07:45:41.464Z,84.5
2017-11-01T07:46:43.293Z,84.5
2017-11-01T07:47:45.103Z,83.9
2017-11-01T07:48:46.976Z,84.1
2017-11-01T07:49:48.808Z,83.6
2017-11-01T07:50:50.705Z,83.4
2017-11-01T07:51:52.530Z,83.3
2017-11-01T07:52:54.358Z,83.0
2017-11-01T07:53:56.283Z,82.5
2017-11-01T07:54:58.131Z,82.7
2017-11-01T07:56:00.018Z,82.0
2017-11-01T07:57:01.869Z,82.2
2017-11-01T07:58:03.709Z,81.9
2017-11-01T07:59:05.548Z,81.5
2017-11-01T08:00:07.374Z,81.3
2017-11-01T08:01:09.248Z,81.1
2017-11-01T08:02:11.166Z,86.6
2017-11-01T08:03:13.016Z,88.2
2017-11-01T08:04:15.234Z,89.1
2017-11-01T08:05:17.031Z,88.7
2017-11-01T08:06:18.865Z,88.5
2017-11-01T08:07:20.737Z,87.4
2017-11-01T08:08:22.579Z,86.8
2017-11-01T08:09:24.434Z,86.8
2017-11-01T08:10:26.283Z,86.9
2017-11-01T08:11:28.138Z,87.6
2017-11-01T08:12:29.978Z,88.2
2017-11-01T08:13:31.805Z,88.2
2017-11-01T08:14:34.076Z,88.1
2017-11-01T08:15:36.557Z,88.0
2017-11-01T08:16:38.484Z,87.7
2017-11-01T08:17:40.305Z,88.4
2017-11-01T08:18:42.164Z,89.6
2017-11-01T08:19:44.059Z,89.8
2017-11-01T08:20:46.122Z,90.3
2017-11-01T08:21:47.936Z,90.0
2017-11-01T08:22:51.173Z,90.8
2017-11-01T08:23:52.993Z,90.7
2017-11-01T08:24:55.186Z,90.6
2017-11-01T08:25:57.035Z,90.6
2017-11-01T08:26:59.139Z,89.4
2017-11-01T08:28:00.960Z,88.7
2017-11-01T08:29:02.846Z,88.2
2017-11-01T08:30:04.675Z,88.3
2017-11-01T08:31:06.497Z,88.0
2017-11-01T08:32:08.330Z,87.8
2017-11-01T08:33:10.398Z,87.7
2017-11-01T08:34:12.262Z,86.8
2017-11-01T08:35:14.110Z,86.1
2017-11-01T08:36:16.552Z,84.7
2017-11-01T08:37:18.363Z,86.0
2017-11-01T08:38:20.275Z,85.5
2017-11-01T08:39:22.472Z,85.7
2017-11-01T08:40:24.274Z,85.1
2017-11-01T08:41:26.121Z,84.9
2017-11-01T08:42:27.951Z,84.6
2017-11-01T08:43:29.847Z,84.5
2017-11-01T08:44:31.881Z,84.2
2017-11-01T08:45:33.789Z,84.4
2017-11-01T08:46:35.616Z,84.2
2017-11-01T08:47:37.507Z,84.3
2017-11-01T08:48:39.317Z,84.2
2017-11-01T08:49:41.129Z,82.9
2017-11-01T08:50:42.963Z,82.8
2017-11-01T08:51:44.781Z,82.7
2017-11-01T08:52:46.841Z,82.3
2017-11-01T08:53:48.758Z,82.1
2017-11-01T08:54:50.627Z,81.7
2017-11-01T08:55:52.465Z,81.5
2017-11-01T08:56:54.296Z,81.4
2017-11-01T08:57:56.121Z,81.0
2017-11-01T08:58:57.963Z,81.0
2017-11-01T08:59:59.767Z,80.7
2017-11-01T09:01:01.612Z,80.1
2017-11-01T09:02:03.725Z,79.7
2017-11-01T09:03:05.532Z,79.4
2017-11-01T09:04:07.369Z,78.8
2017-11-01T09:05:09.211Z,79.5
2017-11-01T09:06:11.043Z,78.7
2017-11-01T09:07:12.923Z,79.0
2017-11-01T09:08:14.782Z,79.0
2017-11-01T09:09:16.639Z,78.8
2017-11-01T09:10:18.456Z,79.1
2017-11-01T09:11:20.297Z,78.0
2017-11-01T09:12:22.750Z,78.0
2017-11-01T09:13:24.544Z,77.8
2017-11-01T09:14:26.406Z,78.0
2017-11-01T09:15:28.277Z,77.8
2017-11-01T09:16:30.172Z,77.8
2017-11-01T09:17:32.002Z,77.6
2017-11-01T09:18:33.924Z,77.0
2017-11-01T09:19:35.772Z,77.6
2017-11-01T09:20:37.607Z,77.7
2017-11-01T09:21:39.446Z,77.4
2017-11-01T09:22:41.296Z,77.8
2017-11-01T09:23:43.387Z,77.2
2017-11-01T09:24:45.200Z,77.1
2017-11-01T09:25:47.055Z,77.1
2017-11-01T09:26:48.889Z,76.8
2017-11-01T09:27:50.713Z,76.8
2017-11-01T09:28:52.556Z,76.3
2017-11-01T09:29:54.374Z,76.2
2017-11-01T09:30:56.236Z,76.6
2017-11-01T09:31:58.075Z,76.5
2017-11-01T09:32:59.904Z,76.3
2017-11-01T09:34:01.749Z,76.0
2017-11-01T09:35:03.579Z,76.2
2017-11-01T09:36:05.431Z,75.8
2017-11-01T09:37:07.358Z,75.4
2017-11-01T09:38:09.185Z,75.0
2017-11-01T09:39:11.008Z,73.8
2017-11-01T09:40:12.870Z,73.2
2017-11-01T09:41:14.715Z,73.1
2017-11-01T09:42:16.544Z,72.6
2017-11-01T09:43:18.377Z,72.1
2017-11-01T09:44:20.212Z,71.4
2017-11-01T09:45:22.012Z,71.5
2017-11-01T09:46:23.860Z,71.6
2017-11-01T09:47:25.723Z,71.3
2017-11-01T09:48:27.542Z,71.0
2017-11-01T09:49:29.361Z,71.1
2017-11-01T09:50:31.239Z,71.0
2017-11-01T09:51:33.165Z,71.2
2017-11-01T09:52:34.977Z,69.7
2017-11-01T09:53:36.868Z,70.1
2017-11-01T09:54:38.680Z,70.1
2017-11-01T09:55:40.511Z,70.1
2017-11-01T09:56:42.351Z,69.5
2017-11-01T09:57:44.271Z,69.3
2017-11-01T09:58:46.126Z,69.1
2017-11-01T09:59:48.054Z,69.7
2017-11-01T10:00:49.888Z,69.2
2017-11-01T10:01:51.733Z,68.7
2017-11-01T10:02:53.575Z,68.7
2017-11-01T10:03:55.432Z,68.4
2017-11-01T10:04:57.312Z,68.1
2017-11-01T10:05:59.160Z,67.7
2017-11-01T10:07:01.027Z,67.8
2017-11-01T10:08:02.888Z,67.6
2017-11-01T10:09:04.711Z,67.6
2017-11-01T10:10:06.566Z,67.6
2017-11-01T10:11:08.417Z,66.6
2017-11-01T10:12:10.295Z,65.5
2017-11-01T10:13:12.236Z,65.9
2017-11-01T10:14:14.093Z,65.0
2017-11-01T10:15:15.911Z,66.6
2017-11-01T10:16:17.726Z,67.8
2017-11-01T10:17:19.612Z,67.7
2017-11-01T10:18:21.438Z,66.9
2017-11-01T10:19:23.297Z,66.3
2017-11-01T10:20:25.191Z,67.0
2017-11-01T10:21:27.067Z,67.1
2017-11-01T10:22:28.962Z,66.8
2017-11-01T10:23:30.895Z,68.2
2017-11-01T10:24:32.718Z,69.0
2017-11-01T10:25:34.572Z,70.3
2017-11-01T10:26:36.416Z,70.3
2017-11-01T10:27:38.311Z,70.2
2017-11-01T10:28:40.280Z,70.3
2017-11-01T10:29:42.113Z,69.6
2017-11-01T10:30:44.008Z,68.8
2017-11-01T10:31:45.855Z,67.6
2017-11-01T10:32:47.809Z,65.0
2017-11-01T10:33:49.654Z,63.3
2017-11-01T10:34:51.529Z,63.8
2017-11-01T10:35:53.376Z,62.3
2017-11-01T10:36:55.209Z,62.0
2017-11-01T10:37:57.042Z,60.4
2017-11-01T10:38:58.897Z,59.2
2017-11-01T10:40:00.763Z,59.2
2017-11-01T10:41:02.624Z,59.0
2017-11-01T10:42:04.443Z,59.3
2017-11-01T10:43:06.284Z,59.8
2017-11-01T10:44:08.135Z,60.3
2017-11-01T10:45:10.123Z,61.0
2017-11-01T10:46:11.970Z,62.6
2017-11-01T10:47:13.886Z,62.6
2017-11-01T10:48:15.938Z,63.2
2017-11-01T10:49:17.868Z,62.2
2017-11-01T10:50:19.759Z,61.8
2017-11-01T10:51:21.651Z,59.8
2017-11-01T10:52:23.545Z,60.5
2017-11-01T10:53:25.395Z,60.7
2017-11-01T10:54:27.245Z,60.4
2017-11-01T10:55:29.158Z,61.9
2017-11-01T10:56:31.129Z,63.0
2017-11-01T10:57:33.041Z,62.3
2017-11-01T10:58:34.925Z,63.0
2017-11-01T10:59:36.793Z,63.6
2017-11-01T11:00:38.651Z,64.9
2017-11-01T11:01:40.567Z,64.7
2017-11-01T11:02:42.504Z,64.9
2017-11-01T11:03:44.336Z,63.7
2017-11-01T11:04:46.193Z,63.0
2017-11-01T11:05:48.051Z,63.4
2017-11-01T11:06:49.872Z,63.9
2017-11-01T11:07:51.710Z,64.6
2017-11-01T11:08:53.553Z,65.2
2017-11-01T11:09:55.411Z,67.0
2017-11-01T11:10:57.279Z,68.7
2017-11-01T11:11:59.133Z,70.0
2017-11-01T11:13:00.979Z,70.1
2017-11-01T11:14:02.835Z,69.8
2017-11-01T11:15:04.686Z,69.0
2017-11-01T11:16:06.542Z,68.2
2017-11-01T11:17:08.415Z,68.6
2017-11-01T11:18:10.388Z,69.9
2017-11-01T11:19:12.292Z,72.2
2017-11-01T11:20:14.130Z,73.0
2017-11-01T11:21:16.004Z,74.1
2017-11-01T11:22:17.853Z,74.5
2017-11-01T11:23:19.695Z,74.3
2017-11-01T11:24:21.529Z,74.9
2017-11-01T11:25:23.352Z,75.0
2017-11-01T11:26:25.236Z,75.3
2017-11-01T11:27:27.061Z,75.5
2017-11-01T11:28:28.920Z,74.7
2017-11-01T11:29:30.775Z,74.0
2017-11-01T11:30:32.636Z,75.2
2017-11-01T11:31:34.472Z,76.0
2017-11-01T11:32:36.318Z,75.0
2017-11-01T11:33:38.178Z,74.3
2017-11-01T11:34:40.028Z,73.0
2017-11-01T11:35:41.916Z,73.3
2017-11-01T11:36:43.745Z,73.0
2017-11-01T11:37:45.575Z,74.0
2017-11-01T11:38:47.429Z,73.6
2017-11-01T11:39:49.429Z,72.2
2017-11-01T11:40:51.263Z,72.7
2017-11-01T11:41:53.080Z,73.0
2017-11-01T11:42:55.352Z,72.9
2017-11-01T11:43:57.235Z,73.6
2017-11-01T11:44:59.065Z,73.5
2017-11-01T11:46:00.924Z,72.6
2017-11-01T11:47:02.848Z,72.8
2017-11-01T11:48:04.895Z,74.0
2017-11-01T11:49:06.780Z,75.2
2017-11-01T11:50:08.629Z,75.1
2017-11-01T11:51:10.484Z,74.8
2017-11-01T11:52:12.433Z,75.0
2017-11-01T11:53:14.436Z,75.1
2017-11-01T11:54:16.269Z,74.7
2017-11-01T11:55:18.088Z,75.4
2017-11-01T11:56:19.925Z,75.8
2017-11-01T11:57:21.792Z,76.5
2017-11-01T11:58:23.825Z,76.4
2017-11-01T11:59:25.663Z,76.1
2017-11-01T12:00:27.536Z,76.1
2017-11-01T12:01:29.362Z,76.4
2017-11-01T12:02:31.245Z,75.6
2017-11-01T12:03:33.090Z,75.8
2017-11-01T12:04:34.999Z,75.4
2017-11-01T12:05:36.849Z,74.2
2017-11-01T12:06:38.781Z,72.9
2017-11-01T12:07:40.638Z,72.5
2017-11-01T12:08:42.478Z,73.2
2017-11-01T12:09:44.376Z,73.3
2017-11-01T12:10:46.407Z,73.5
2017-11-01T12:11:48.333Z,72.8
2017-11-01T12:12:50.258Z,71.7
2017-11-01T12:13:52.175Z,71.5
2017-11-01T12:14:54.060Z,72.4
2017-11-01T12:15:55.897Z,71.5
2017-11-01T12:16:58.026Z,71.5
2017-11-01T12:17:59.940Z,71.2
2017-11-01T12:19:01.906Z,71.2
2017-11-01T12:20:03.769Z,71.4
2017-11-01T12:21:05.617Z,70.6
2017-11-01T12:22:07.488Z,71.4
2017-11-01T12:23:09.421Z,72.3
2017-11-01T12:24:11.407Z,71.5
2017-11-01T12:25:13.876Z,70.9
2017-11-01T12:26:15.751Z,69.7
2017-11-01T12:27:17.546Z,68.8
2017-11-01T12:28:19.412Z,69.2
2017-11-01T12:29:21.479Z,69.3
2017-11-01T12:30:23.274Z,70.7
2017-11-01T12:31:25.161Z,70.9
2017-11-01T12:32:27.095Z,72.2
2017-11-01T12:33:29.175Z,73.0
2017-11-01T12:34:31.018Z,72.5
2017-11-01T12:35:32.990Z,73.0
2017-11-01T12:36:34.986Z,72.8
2017-11-01T12:37:36.985Z,72.9
2017-11-01T12:38:38.861Z,72.5
2017-11-01T12:39:41.620Z,72.5
2017-11-01T12:40:43.468Z,72.8
2017-11-01T12:41:45.388Z,73.5
2017-11-01T12:42:47.224Z,73.1
2017-11-01T12:43:49.246Z,73.5
2017-11-01T12:44:51.154Z,72.9
2017-11-01T12:45:53.084Z,72.9
2017-11-01T12:46:54.953Z,72.7
2017-11-01T12:47:56.907Z,72.9
2017-11-01T12:48:58.793Z,73.0
2017-11-01T12:50:00.664Z,72.6
2017-11-01T12:51:02.773Z,72.5
2017-11-01T12:52:04.600Z,72.8
2017-11-01T12:53:06.587Z,72.9
2017-11-01T12:54:08.506Z,72.5
2017-11-01T12:55:10.516Z,72.5
2017-11-01T12:56:12.363Z,72.2
2017-11-01T12:57:14.233Z,72.4
2017-11-01T12:58:16.282Z,72.5
2017-11-01T12:59:18.111Z,72.5
2017-11-01T13:00:20.076Z,72.5
2017-11-01T13:01:21.944Z,72.5
2017-11-01T13:02:23.824Z,72.8
2017-11-01T13:03:25.652Z,72.4
2017-11-01T13:04:27.486Z,72.8
2017-11-01T13:05:29.336Z,72.1
2017-11-01T13:06:31.213Z,72.3
2017-11-01T13:07:33.162Z,71.9
2017-11-01T13:08:35.053Z,72.2
2017-11-01T13:09:38.201Z,73.1
2017-11-01T13:10:41.830Z,73.1
2017-11-01T13:11:43.954Z,72.5
2017-11-01T13:12:46.265Z,72.5
2017-11-01T13:13:48.171Z,72.3
2017-11-01T13:14:50.282Z,71.7
2017-11-01T13:15:52.648Z,71.8
2017-11-01T13:16:54.399Z,70.5
2017-11-01T13:17:56.258Z,70.5
2017-11-01T13:18:58.088Z,69.7
2017-11-01T13:19:59.962Z,69.2
2017-11-01T13:21:01.803Z,69.2
2017-11-01T13:22:03.692Z,69.1
2017-11-01T13:23:05.532Z,69.1
2017-11-01T13:24:07.394Z,69.4
2017-11-01T13:25:09.236Z,68.0
2017-11-01T13:26:11.087Z,68.0
2017-11-01T13:27:12.921Z,66.8
2017-11-01T13:28:14.792Z,67.0
2017-11-01T13:29:16.636Z,66.8
2017-11-01T13:30:18.475Z,67.9
2017-11-01T13:31:20.338Z,68.3
2017-11-01T13:32:22.206Z,68.1
2017-11-01T13:33:24.016Z,68.2
2017-11-01T13:34:26.048Z,68.5
2017-11-01T13:35:27.777Z,68.6
2017-11-01T13:36:29.599Z,68.7
2017-11-01T13:37:31.430Z,68.0
2017-11-01T13:38:33.348Z,68.8
2017-11-01T13:39:35.153Z,68.4
2017-11-01T13:40:36.981Z,69.1
2017-11-01T13:41:38.854Z,69.5
2017-11-01T13:42:40.783Z,69.2
2017-11-01T13:43:42.631Z,69.2